createdAt,value
2022-12-22T00:00:15.584Z,-0.09
2022-12-22T00:03:00.787Z,0.06
2022-12-22T00:05:46.015Z,-0.07
2022-12-22T00:08:31.084Z,-0.14
2022-12-22T00:11:17.293Z,0.11
2022-12-22T00:14:04.784Z,0.09
2022-12-22T00:16:51.873Z,0.04
2022-12-22T00:19:37.311Z,-0.04
2022-12-22T00:22:40.311Z,0.02
2022-12-22T00:25:26.839Z,-0.11
2022-12-22T00:28:11.759Z,-0.08
2022-12-22T00:30:56.888Z,0.04
2022-12-22T00:33:42.565Z,-0.03
2022-12-22T00:36:30.944Z,-0.37
2022-12-22T00:39:16.480Z,-0.11
2022-12-22T00:42:02.362Z,-0.21
2022-12-22T00:44:47.633Z,-0.33
2022-12-22T00:47:36.213Z,-0.11
2022-12-22T00:50:21.395Z,-0.20
2022-12-22T00:53:06.479Z,-0.37
2022-12-22T00:55:51.701Z,-0.21
2022-12-22T00:58:39.287Z,-0.06
2022-12-22T01:01:24.146Z,-0.12
2022-12-22T01:04:09.429Z,-0.13
2022-12-22T01:06:55.234Z,-0.18
2022-12-22T01:09:41.037Z,-0.14
2022-12-22T01:12:38.581Z,-0.14
2022-12-22T01:15:33.745Z,-0.14
2022-12-22T01:18:19.281Z,-0.37
2022-12-22T01:21:04.557Z,-0.40
2022-12-22T01:23:49.973Z,-0.23
2022-12-22T01:26:35.130Z,-0.23
2022-12-22T01:29:20.890Z,-0.22
2022-12-22T01:32:06.291Z,-0.23
2022-12-22T01:34:51.727Z,-0.23
2022-12-22T01:37:37.193Z,-0.47
2022-12-22T01:40:22.963Z,-0.27
2022-12-22T01:43:08.229Z,-0.31
2022-12-22T01:45:55.376Z,-0.19
2022-12-22T01:48:49.178Z,-0.31
2022-12-22T01:51:44.040Z,-0.20
2022-12-22T01:54:31.227Z,-0.35
2022-12-22T01:57:16.506Z,-0.32
2022-12-22T02:00:03.307Z,-0.35
2022-12-22T02:02:52.215Z,-0.38
2022-12-22T02:05:39.123Z,-0.24
2022-12-22T02:08:43.410Z,-0.30
2022-12-22T02:11:49.017Z,-0.39
2022-12-22T02:14:58.744Z,-0.32
2022-12-22T02:17:43.977Z,-0.36
2022-12-22T02:20:47.888Z,-0.41
2022-12-22T02:23:46.112Z,-0.40
2022-12-22T02:26:56.226Z,-0.52
2022-12-22T02:29:48.093Z,-0.45
2022-12-22T02:32:33.656Z,-0.52
2022-12-22T02:35:18.699Z,-0.58
2022-12-22T02:38:21.733Z,-0.51
2022-12-22T02:41:34.082Z,-0.46
2022-12-22T02:44:19.503Z,-0.42
2022-12-22T02:47:37.727Z,-0.44
2022-12-22T02:50:38.420Z,-0.73
2022-12-22T02:53:25.107Z,-0.54
2022-12-22T02:56:18.386Z,-0.56
2022-12-22T02:59:03.808Z,-0.56
2022-12-22T03:01:49.372Z,-0.74
2022-12-22T03:04:34.433Z,-0.76
2022-12-22T03:07:19.592Z,-0.63
2022-12-22T03:10:04.735Z,-0.67
2022-12-22T03:12:49.991Z,-0.63
2022-12-22T03:15:35.181Z,-0.78
2022-12-22T03:18:25.798Z,-0.55
2022-12-22T03:21:11.104Z,-0.56
2022-12-22T03:23:56.574Z,-0.61
2022-12-22T03:26:23.753Z,-0.66
2022-12-22T03:28:50.647Z,-0.66
2022-12-22T03:31:17.688Z,-0.60
2022-12-22T03:33:44.341Z,-0.67
2022-12-22T03:36:11.535Z,-0.85
2022-12-22T03:38:38.295Z,-0.69
2022-12-22T03:41:05.162Z,-0.75
2022-12-22T03:43:50.316Z,-0.92
2022-12-22T03:46:30.602Z,-0.53
2022-12-22T03:49:10.014Z,-0.79
2022-12-22T03:51:48.290Z,-0.82
2022-12-22T03:54:17.434Z,-0.71
2022-12-22T03:56:45.104Z,-0.64
2022-12-22T03:59:12.120Z,-0.75
2022-12-22T04:01:42.366Z,-0.63
2022-12-22T04:04:09.970Z,-0.56
2022-12-22T04:06:36.633Z,-0.63
2022-12-22T04:09:04.075Z,-0.66
2022-12-22T04:11:49.011Z,-0.75
2022-12-22T04:14:16.331Z,-0.72
2022-12-22T04:16:43.266Z,-0.78
2022-12-22T04:19:11.258Z,-1.02
2022-12-22T04:21:38.497Z,-0.62
2022-12-22T04:24:05.809Z,-0.70
2022-12-22T04:26:32.777Z,-0.72
2022-12-22T04:28:59.420Z,-0.69
2022-12-22T04:31:26.107Z,-0.79
2022-12-22T04:33:53.870Z,-0.66
2022-12-22T04:36:20.526Z,-0.88
2022-12-22T04:38:47.356Z,-1.13
2022-12-22T04:41:14.057Z,-0.72
2022-12-22T04:43:40.792Z,-0.71
2022-12-22T04:46:08.543Z,-0.65
2022-12-22T04:48:35.570Z,-0.88
2022-12-22T04:51:02.951Z,-0.82
2022-12-22T04:53:30.826Z,-0.78
2022-12-22T04:56:03.791Z,-0.93
2022-12-22T04:58:31.088Z,-0.89
2022-12-22T05:00:57.807Z,-1.03
2022-12-22T05:03:24.773Z,-0.93
2022-12-22T05:05:51.528Z,-0.93
2022-12-22T05:08:18.256Z,-0.86
2022-12-22T05:10:45.253Z,-1.12
2022-12-22T05:13:11.850Z,-1.30
2022-12-22T05:15:38.682Z,-1.10
2022-12-22T05:18:05.499Z,-1.10
2022-12-22T05:20:32.341Z,-1.09
2022-12-22T05:22:59.303Z,-1.02
2022-12-22T05:25:29.945Z,-0.98
2022-12-22T05:28:00.719Z,-1.10
2022-12-22T05:30:27.400Z,-1.08
2022-12-22T05:32:54.216Z,-0.97
2022-12-22T05:35:20.909Z,-1.04
2022-12-22T05:37:47.580Z,-0.91
2022-12-22T05:40:14.265Z,-1.24
2022-12-22T05:42:41.082Z,-0.94
2022-12-22T05:45:13.277Z,-0.85
2022-12-22T05:47:40.089Z,-1.01
2022-12-22T05:50:07.895Z,-0.93
2022-12-22T05:52:34.675Z,-1.01
2022-12-22T05:55:01.375Z,-0.98
2022-12-22T05:57:28.226Z,-0.85
2022-12-22T05:59:54.914Z,-0.96
2022-12-22T06:02:21.907Z,-1.17
2022-12-22T06:04:48.687Z,-0.99
2022-12-22T06:07:17.525Z,-0.85
2022-12-22T06:09:44.205Z,-1.03
2022-12-22T06:12:10.861Z,-0.85
2022-12-22T06:14:37.762Z,-0.73
2022-12-22T06:17:04.472Z,-0.71
2022-12-22T06:19:31.616Z,-0.76
2022-12-22T06:21:58.367Z,-0.59
2022-12-22T06:24:24.972Z,-0.40
2022-12-22T06:26:51.672Z,-0.38
2022-12-22T06:29:18.371Z,-0.44
2022-12-22T06:31:45.134Z,-0.26
2022-12-22T06:34:12.559Z,-0.24
2022-12-22T06:36:39.523Z,-0.16
2022-12-22T06:39:06.912Z,-0.05
2022-12-22T06:41:52.663Z,0.02
2022-12-22T06:44:19.331Z,0.08
2022-12-22T06:46:45.995Z,0.21
2022-12-22T06:49:12.792Z,0.04
2022-12-22T06:51:39.430Z,0.39
2022-12-22T06:54:06.382Z,0.27
2022-12-22T06:56:33.025Z,0.33
2022-12-22T06:58:59.691Z,0.39
2022-12-22T07:01:26.534Z,0.34
2022-12-22T07:03:54.578Z,0.65
2022-12-22T07:06:21.276Z,0.54
2022-12-22T07:08:48.933Z,0.79
2022-12-22T07:11:16.424Z,0.46
2022-12-22T07:13:43.563Z,0.84
2022-12-22T07:16:11.691Z,0.73
2022-12-22T07:18:41.588Z,0.84
2022-12-22T07:21:11.750Z,0.98
2022-12-22T07:23:40.407Z,0.74
2022-12-22T07:26:08.409Z,1.20
2022-12-22T07:28:40.011Z,1.31
2022-12-22T07:31:08.727Z,1.35
2022-12-22T07:33:35.408Z,1.00
2022-12-22T07:36:08.143Z,1.18
2022-12-22T07:38:37.332Z,1.34
2022-12-22T07:41:24.954Z,1.47
2022-12-22T07:43:54.008Z,1.82
2022-12-22T07:46:20.859Z,2.27
2022-12-22T07:49:05.932Z,2.38
2022-12-22T07:51:34.264Z,2.27
2022-12-22T07:54:01.310Z,2.70
2022-12-22T07:56:27.914Z,2.70
2022-12-22T07:58:54.476Z,3.02
2022-12-22T08:01:21.097Z,3.52
2022-12-22T08:03:47.987Z,3.61
2022-12-22T08:06:14.655Z,3.81
2022-12-22T08:08:41.303Z,4.16
2022-12-22T08:11:08.046Z,3.95
2022-12-22T08:13:35.288Z,4.38
2022-12-22T08:16:07.710Z,4.81
2022-12-22T08:18:35.743Z,5.22
2022-12-22T08:21:03.564Z,4.60
2022-12-22T08:23:30.684Z,4.72
2022-12-22T08:26:12.052Z,5.26
2022-12-22T08:28:44.525Z,5.31
2022-12-22T08:31:11.242Z,5.10
2022-12-22T08:33:38.075Z,5.47
2022-12-22T08:36:08.289Z,4.81
2022-12-22T08:38:36.741Z,4.81
2022-12-22T08:41:03.739Z,5.51
2022-12-22T08:43:33.188Z,5.73
2022-12-22T08:45:59.882Z,6.27
2022-12-22T08:48:26.550Z,6.71
2022-12-22T08:50:53.112Z,6.52
2022-12-22T08:53:54.060Z,7.43
2022-12-22T08:56:06.807Z,8.63
2022-12-22T08:58:33.668Z,8.87
2022-12-22T09:01:00.333Z,8.26
2022-12-22T09:03:27.036Z,7.87
2022-12-22T09:06:03.482Z,7.91
2022-12-22T09:08:30.192Z,7.95
2022-12-22T09:10:56.872Z,7.33
2022-12-22T09:13:23.456Z,8.64
2022-12-22T09:15:50.070Z,9.57
2022-12-22T09:18:16.798Z,10.39
2022-12-22T09:20:43.553Z,10.62
2022-12-22T09:23:10.555Z,9.74
2022-12-22T09:25:37.157Z,10.46
2022-12-22T09:28:07.311Z,10.26
2022-12-22T09:30:33.992Z,10.40
2022-12-22T09:33:00.564Z,9.82
2022-12-22T09:35:28.198Z,11.10
2022-12-22T09:37:54.851Z,11.58
2022-12-22T09:40:22.305Z,11.75
2022-12-22T09:42:48.894Z,10.97
2022-12-22T09:45:21.349Z,10.02
2022-12-22T09:47:53.832Z,9.75
2022-12-22T09:50:25.566Z,9.66
2022-12-22T09:52:57.934Z,10.55
2022-12-22T09:55:24.598Z,11.44
2022-12-22T09:57:53.118Z,11.98
2022-12-22T10:00:25.494Z,12.66
2022-12-22T10:03:33.581Z,13.48
2022-12-22T10:06:18.759Z,13.38
2022-12-22T10:08:45.440Z,13.80
2022-12-22T10:11:17.196Z,14.05
2022-12-22T10:13:45.647Z,13.90
2022-12-22T10:16:24.462Z,13.15
2022-12-22T10:19:08.829Z,13.87
2022-12-22T10:21:46.181Z,13.92
2022-12-22T10:24:28.498Z,14.76
2022-12-22T10:26:58.026Z,14.92
2022-12-22T10:29:26.289Z,15.91
2022-12-22T10:32:13.307Z,16.31
2022-12-22T10:35:06.508Z,16.58
2022-12-22T10:37:38.841Z,16.62
2022-12-22T10:40:33.665Z,16.99
2022-12-22T10:43:02.279Z,16.86
2022-12-22T10:45:28.903Z,17.43
2022-12-22T10:47:58.030Z,16.68
2022-12-22T10:50:24.686Z,17.49
2022-12-22T10:52:55.888Z,17.83
2022-12-22T10:55:28.860Z,18.33
2022-12-22T10:58:17.362Z,17.66
2022-12-22T11:00:47.698Z,17.54
2022-12-22T11:03:19.045Z,18.21
2022-12-22T11:05:51.165Z,19.78
2022-12-22T11:08:20.089Z,20.46
2022-12-22T11:10:53.624Z,20.11
2022-12-22T11:13:41.623Z,20.84
2022-12-22T11:16:23.542Z,20.12
2022-12-22T11:19:10.220Z,19.85
2022-12-22T11:21:46.776Z,20.29
2022-12-22T11:24:47.475Z,21.25
2022-12-22T11:27:56.502Z,20.26
2022-12-22T11:30:55.310Z,19.79
2022-12-22T11:33:49.635Z,19.52
2022-12-22T11:36:28.583Z,21.21
2022-12-22T11:39:14.783Z,21.10
2022-12-22T11:42:15.226Z,21.06
2022-12-22T11:45:08.663Z,21.00
2022-12-22T11:47:47.702Z,20.27
2022-12-22T11:50:59.388Z,20.78
2022-12-22T11:53:28.722Z,20.99
2022-12-22T11:56:15.049Z,20.19
2022-12-22T11:58:57.137Z,18.82
2022-12-22T12:01:48.763Z,19.04
2022-12-22T12:04:43.010Z,19.01
2022-12-22T12:07:41.021Z,19.06
2022-12-22T12:10:22.284Z,19.41
2022-12-22T12:13:01.814Z,19.26
2022-12-22T12:15:59.995Z,18.30
2022-12-22T12:18:54.701Z,17.82
2022-12-22T12:21:47.392Z,16.80
2022-12-22T12:24:25.800Z,16.48
2022-12-22T12:26:55.245Z,16.73
2022-12-22T12:29:28.720Z,16.56
2022-12-22T12:32:06.155Z,16.75
2022-12-22T12:34:37.628Z,17.43
2022-12-22T12:37:24.261Z,18.61
2022-12-22T12:40:27.899Z,19.31
2022-12-22T12:42:57.084Z,19.31
2022-12-22T12:45:45.279Z,20.00
2022-12-22T12:48:21.247Z,19.77
2022-12-22T12:50:49.745Z,18.45
2022-12-22T12:53:18.018Z,17.85
2022-12-22T12:55:52.328Z,18.71
2022-12-22T12:58:39.764Z,18.98
2022-12-22T13:01:34.262Z,18.81
2022-12-22T13:04:03.471Z,19.16
2022-12-22T13:06:49.368Z,19.30
2022-12-22T13:12:40.195Z,20.51
2022-12-22T13:15:39.998Z,20.53
2022-12-22T13:18:35.989Z,20.50
2022-12-22T13:24:23.452Z,18.74
2022-12-22T13:26:47.137Z,18.16
2022-12-22T13:29:13.782Z,18.04
2022-12-22T13:31:47.184Z,18.29
2022-12-22T13:34:46.104Z,17.39
2022-12-22T13:37:26.561Z,15.05
2022-12-22T13:40:08.340Z,13.46
2022-12-22T13:42:38.906Z,12.25
2022-12-22T13:45:17.421Z,11.16
2022-12-22T13:47:45.140Z,10.40
2022-12-22T13:50:47.355Z,10.14
2022-12-22T13:53:42.036Z,9.71
2022-12-22T13:56:08.657Z,9.17
2022-12-22T13:58:41.540Z,9.05
2022-12-22T14:01:11.553Z,8.83
2022-12-22T14:03:59.483Z,8.64
2022-12-22T14:06:33.298Z,8.39
2022-12-22T14:09:17.409Z,8.33
2022-12-22T14:11:51.937Z,8.07
2022-12-22T14:14:22.999Z,7.86
2022-12-22T14:16:52.506Z,7.84
2022-12-22T14:19:21.251Z,7.63
2022-12-22T14:22:11.127Z,7.59
2022-12-22T14:24:54.490Z,7.43
2022-12-22T14:27:30.471Z,7.37
2022-12-22T14:30:01.730Z,7.21
2022-12-22T14:32:45.799Z,7.00
2022-12-22T14:35:26.376Z,6.74
2022-12-22T14:38:06.571Z,6.44
2022-12-22T14:40:38.827Z,6.41
2022-12-22T14:43:13.863Z,6.50
2022-12-22T14:45:40.740Z,6.41
2022-12-22T14:48:10.064Z,6.17
2022-12-22T14:50:37.049Z,6.06
2022-12-22T14:53:05.767Z,5.84
2022-12-22T14:55:41.291Z,5.71
2022-12-22T14:58:11.063Z,5.54
2022-12-22T15:00:39.523Z,5.25
2022-12-22T15:03:24.958Z,5.27
2022-12-22T15:05:53.312Z,4.78
2022-12-22T15:08:40.628Z,4.90
2022-12-22T15:11:18.882Z,4.99
2022-12-22T15:13:47.898Z,4.69
2022-12-22T15:16:18.426Z,4.78
2022-12-22T15:18:45.858Z,4.38
2022-12-22T15:21:15.187Z,4.46
2022-12-22T15:23:41.851Z,4.21
2022-12-22T15:26:08.623Z,4.25
2022-12-22T15:28:35.265Z,4.26
2022-12-22T15:31:03.775Z,4.38
2022-12-22T15:33:31.079Z,4.23
2022-12-22T15:35:57.997Z,4.10
2022-12-22T15:38:25.565Z,4.19
2022-12-22T15:40:52.682Z,4.23
2022-12-22T15:46:07.414Z,4.14
2022-12-22T15:48:37.170Z,3.89
2022-12-22T15:51:05.851Z,4.00
2022-12-22T15:53:33.892Z,3.84
2022-12-22T15:56:01.303Z,3.79
2022-12-22T15:58:33.120Z,3.84
2022-12-22T16:00:59.917Z,3.51
2022-12-22T16:03:27.085Z,3.48
2022-12-22T16:05:54.790Z,3.55
2022-12-22T16:08:30.845Z,3.47
2022-12-22T16:10:57.951Z,3.57
2022-12-22T16:13:27.197Z,3.57
2022-12-22T16:15:56.981Z,3.43
2022-12-22T16:18:23.750Z,3.53
2022-12-22T16:20:50.839Z,3.43
2022-12-22T16:23:21.329Z,3.55
2022-12-22T16:25:48.385Z,3.52
2022-12-22T16:28:21.332Z,3.44
2022-12-22T16:30:48.737Z,3.40
2022-12-22T16:33:16.579Z,3.28
2022-12-22T16:35:43.596Z,3.15
2022-12-22T16:38:17.904Z,3.15
2022-12-22T16:40:51.750Z,3.29
2022-12-22T16:43:50.913Z,3.14
2022-12-22T16:46:20.734Z,2.93
2022-12-22T16:48:57.047Z,3.06
2022-12-22T16:51:26.595Z,3.01
2022-12-22T16:53:53.401Z,3.13
2022-12-22T16:56:23.336Z,3.10
2022-12-22T16:58:50.371Z,3.14
2022-12-22T17:01:35.088Z,3.03
2022-12-22T17:04:05.780Z,2.88
2022-12-22T17:06:35.085Z,3.05
2022-12-22T17:09:04.588Z,2.99
2022-12-22T17:11:32.709Z,2.89
2022-12-22T17:14:05.859Z,3.01
2022-12-22T17:16:32.715Z,2.76
2022-12-22T17:18:59.396Z,2.88
2022-12-22T17:21:29.300Z,2.80
2022-12-22T17:24:04.106Z,2.75
2022-12-22T17:26:33.096Z,2.70
2022-12-22T17:28:59.898Z,2.81
2022-12-22T17:31:26.961Z,2.64
2022-12-22T17:33:53.755Z,2.58
2022-12-22T17:36:25.199Z,2.58
2022-12-22T17:38:51.828Z,2.80
2022-12-22T17:41:18.631Z,2.69
2022-12-22T17:43:46.789Z,2.82
2022-12-22T17:46:19.295Z,3.06
2022-12-22T17:48:46.834Z,3.06
2022-12-22T17:51:17.723Z,2.99
2022-12-22T17:53:45.221Z,2.75
2022-12-22T17:56:24.163Z,2.52
2022-12-22T17:58:51.300Z,2.92
2022-12-22T18:01:26.725Z,3.00
2022-12-22T18:03:54.055Z,2.80
2022-12-22T18:06:23.362Z,2.95
2022-12-22T18:08:52.266Z,2.70
2022-12-22T18:11:19.076Z,2.66
2022-12-22T18:13:46.019Z,2.67
2022-12-22T18:16:17.728Z,2.87
2022-12-22T18:18:44.813Z,2.80
2022-12-22T18:21:18.008Z,2.67
2022-12-22T18:23:49.879Z,2.76
2022-12-22T18:26:21.283Z,2.69
2022-12-22T18:28:49.107Z,2.77
2022-12-22T18:31:15.823Z,2.47
2022-12-22T18:33:42.620Z,2.53
2022-12-22T18:36:36.133Z,2.43
2022-12-22T18:39:03.550Z,2.43
2022-12-22T18:41:35.458Z,2.56
2022-12-22T18:44:02.087Z,2.38
2022-12-22T18:46:28.792Z,2.27
2022-12-22T18:49:00.410Z,2.02
2022-12-22T18:51:30.195Z,2.19
2022-12-22T18:53:57.250Z,2.25
2022-12-22T18:56:23.973Z,2.15
2022-12-22T18:58:50.821Z,2.30
2022-12-22T19:01:23.972Z,2.33
2022-12-22T19:03:53.073Z,2.32
2022-12-22T19:06:21.614Z,2.07
2022-12-22T19:08:51.500Z,1.97
2022-12-22T19:11:24.869Z,1.98
2022-12-22T19:13:52.773Z,1.93
2022-12-22T19:16:25.140Z,2.01
2022-12-22T19:18:51.992Z,2.04
2022-12-22T19:21:20.717Z,2.15
2022-12-22T19:23:47.491Z,1.72
2022-12-22T19:26:26.017Z,2.08
2022-12-22T19:28:56.179Z,1.95
2022-12-22T19:31:26.249Z,2.16
2022-12-22T19:33:56.092Z,1.95
2022-12-22T19:36:26.138Z,1.73
2022-12-22T19:39:05.418Z,1.83
2022-12-22T19:41:40.760Z,1.87
2022-12-22T19:44:19.817Z,1.79
2022-12-22T19:46:47.411Z,1.84
2022-12-22T19:49:19.802Z,1.82
2022-12-22T19:51:46.563Z,1.56
2022-12-22T19:54:13.203Z,1.68
2022-12-22T19:56:44.060Z,1.86
2022-12-22T19:59:39.438Z,1.54
2022-12-22T20:02:21.753Z,1.81
2022-12-22T20:04:49.422Z,1.63
2022-12-22T20:07:17.661Z,1.77
2022-12-22T20:09:45.693Z,1.80
2022-12-22T20:12:36.709Z,1.79
2022-12-22T20:15:15.892Z,1.81
2022-12-22T20:17:42.728Z,1.66
2022-12-22T20:20:18.345Z,1.72
2022-12-22T20:22:49.632Z,1.72
2022-12-22T20:25:17.788Z,1.77
2022-12-22T20:27:44.794Z,1.74
2022-12-22T20:30:20.003Z,1.57
2022-12-22T20:32:47.098Z,1.38
2022-12-22T20:35:13.911Z,1.52
2022-12-22T20:37:40.658Z,1.64
2022-12-22T20:40:19.239Z,1.88
2022-12-22T20:42:45.880Z,1.62
2022-12-22T20:45:12.712Z,1.62
2022-12-22T20:47:39.706Z,1.53
2022-12-22T20:50:21.536Z,1.85
2022-12-22T20:52:48.816Z,1.89
2022-12-22T20:55:18.433Z,1.86
2022-12-22T20:57:46.128Z,1.50
2022-12-22T21:00:18.792Z,1.78
2022-12-22T21:02:45.907Z,1.28
2022-12-22T21:05:12.804Z,1.52
2022-12-22T21:07:39.926Z,1.48
2022-12-22T21:10:07.537Z,1.28
2022-12-22T21:12:34.432Z,1.61
2022-12-22T21:15:01.100Z,1.33
2022-12-22T21:17:27.732Z,1.49
2022-12-22T21:19:54.451Z,1.50
2022-12-22T21:22:21.079Z,1.41
2022-12-22T21:24:47.633Z,1.36
2022-12-22T21:27:20.496Z,1.62
2022-12-22T21:29:47.638Z,1.59
2022-12-22T21:32:15.556Z,1.69
2022-12-22T21:34:42.507Z,1.46
2022-12-22T21:37:17.328Z,1.50
2022-12-22T21:39:44.972Z,1.35
2022-12-22T21:42:19.688Z,1.48
2022-12-22T21:44:46.960Z,1.29
2022-12-22T21:47:16.712Z,1.68
2022-12-22T21:49:43.375Z,1.35
2022-12-22T21:52:10.127Z,1.62
2022-12-22T21:54:36.909Z,1.46
2022-12-22T21:57:03.651Z,1.28
2022-12-22T21:59:30.523Z,1.36
2022-12-22T22:01:57.515Z,1.26
2022-12-22T22:04:24.362Z,1.38
2022-12-22T22:06:51.042Z,1.50
2022-12-22T22:09:17.717Z,1.46
2022-12-22T22:12:02.902Z,1.31
2022-12-22T22:14:30.543Z,1.39
2022-12-22T22:16:57.131Z,1.48
2022-12-22T22:19:23.872Z,1.07
2022-12-22T22:21:50.516Z,1.13
2022-12-22T22:24:17.207Z,1.35
2022-12-22T22:26:46.710Z,1.24
2022-12-22T22:29:13.458Z,1.36
2022-12-22T22:31:41.435Z,1.45
2022-12-22T22:34:09.747Z,1.28
2022-12-22T22:36:36.448Z,1.24
2022-12-22T22:39:03.108Z,1.19
2022-12-22T22:41:35.224Z,1.32
2022-12-22T22:44:04.430Z,1.25
2022-12-22T22:46:31.030Z,1.13
2022-12-22T22:48:58.693Z,1.11
2022-12-22T22:51:25.561Z,1.30
2022-12-22T22:53:52.491Z,1.24
2022-12-22T22:56:19.083Z,1.06
2022-12-22T22:58:45.710Z,1.10
2022-12-22T23:01:12.349Z,1.05
2022-12-22T23:03:39.111Z,0.91
2022-12-22T23:06:08.925Z,1.37
2022-12-22T23:08:35.811Z,1.16
2022-12-22T23:11:04.033Z,1.05
2022-12-22T23:13:32.535Z,1.05
2022-12-22T23:16:01.627Z,1.15
2022-12-22T23:18:29.716Z,1.31
2022-12-22T23:21:04.844Z,1.18
2022-12-22T23:23:34.163Z,1.27
2022-12-22T23:26:01.065Z,1.03
2022-12-22T23:28:31.048Z,1.14
2022-12-22T23:30:57.696Z,1.23
2022-12-22T23:33:24.983Z,0.97
2022-12-22T23:35:51.898Z,1.30
2022-12-22T23:38:23.358Z,0.96
2022-12-22T23:40:53.647Z,1.10
2022-12-22T23:43:21.505Z,1.06
2022-12-22T23:45:48.125Z,1.15
2022-12-22T23:48:15.178Z,0.88
2022-12-22T23:50:41.989Z,1.06
2022-12-22T23:53:08.762Z,1.22
2022-12-22T23:55:35.396Z,1.14
2022-12-22T23:58:02.078Z,1.21
